sensor_id;sensor_type;location;lat;lon;timestamp;P1;durP1;ratioP1;P2;durP2;ratioP2
12681;SDS011;6405;59.208;18.216;2022-12-18T00:01:18;13.53;;;8.17;;
12681;SDS011;6405;59.208;18.216;2022-12-18T00:03:46;15.70;;;8.67;;
12681;SDS011;6405;59.208;18.216;2022-12-18T00:06:15;16.20;;;8.63;;
12681;SDS011;6405;59.208;18.216;2022-12-18T00:08:42;14.90;;;8.63;;
12681;SDS011;6405;59.208;18.216;2022-12-18T00:11:16;14.00;;;8.10;;
12681;SDS011;6405;59.208;18.216;2022-12-18T00:13:45;19.60;;;9.17;;
12681;SDS011;6405;59.208;18.216;2022-12-18T00:16:13;15.37;;;8.40;;
12681;SDS011;6405;59.208;18.216;2022-12-18T00:18:43;10.63;;;4.30;;
12681;SDS011;6405;59.208;18.216;2022-12-18T00:21:11;14.77;;;8.90;;
12681;SDS011;6405;59.208;18.216;2022-12-18T00:23:39;13.13;;;7.90;;
12681;SDS011;6405;59.208;18.216;2022-12-18T00:26:10;16.40;;;8.13;;
12681;SDS011;6405;59.208;18.216;2022-12-18T00:28:38;8.63;;;5.23;;
12681;SDS011;6405;59.208;18.216;2022-12-18T00:31:06;14.13;;;7.93;;
12681;SDS011;6405;59.208;18.216;2022-12-18T00:33:37;16.23;;;8.07;;
12681;SDS011;6405;59.208;18.216;2022-12-18T00:36:04;13.27;;;7.57;;
12681;SDS011;6405;59.208;18.216;2022-12-18T00:38:35;14.50;;;8.07;;
12681;SDS011;6405;59.208;18.216;2022-12-18T00:41:02;18.30;;;8.50;;
12681;SDS011;6405;59.208;18.216;2022-12-18T00:43:29;12.23;;;7.80;;
12681;SDS011;6405;59.208;18.216;2022-12-18T00:45:55;18.37;;;8.07;;
12681;SDS011;6405;59.208;18.216;2022-12-18T00:48:22;16.87;;;8.80;;
12681;SDS011;6405;59.208;18.216;2022-12-18T00:50:50;12.67;;;7.80;;
12681;SDS011;6405;59.208;18.216;2022-12-18T00:53:17;16.33;;;8.50;;
12681;SDS011;6405;59.208;18.216;2022-12-18T00:55:45;15.13;;;7.43;;
12681;SDS011;6405;59.208;18.216;2022-12-18T00:58:13;12.83;;;7.30;;
12681;SDS011;6405;59.208;18.216;2022-12-18T01:00:41;17.37;;;7.70;;
12681;SDS011;6405;59.208;18.216;2022-12-18T01:03:10;12.27;;;8.10;;
12681;SDS011;6405;59.208;18.216;2022-12-18T01:05:39;12.70;;;7.50;;
12681;SDS011;6405;59.208;18.216;2022-12-18T01:08:07;9.80;;;4.57;;
12681;SDS011;6405;59.208;18.216;2022-12-18T01:10:34;15.47;;;7.53;;
12681;SDS011;6405;59.208;18.216;2022-12-18T01:13:01;13.13;;;6.80;;
12681;SDS011;6405;59.208;18.216;2022-12-18T01:15:29;15.37;;;7.27;;
12681;SDS011;6405;59.208;18.216;2022-12-18T01:17:55;16.53;;;7.87;;
12681;SDS011;6405;59.208;18.216;2022-12-18T01:20:22;15.87;;;8.37;;
12681;SDS011;6405;59.208;18.216;2022-12-18T01:22:49;16.47;;;7.30;;
12681;SDS011;6405;59.208;18.216;2022-12-18T01:25:16;15.53;;;7.97;;
12681;SDS011;6405;59.208;18.216;2022-12-18T01:27:43;14.47;;;7.93;;
12681;SDS011;6405;59.208;18.216;2022-12-18T01:30:11;14.17;;;8.67;;
12681;SDS011;6405;59.208;18.216;2022-12-18T01:32:38;13.10;;;7.23;;
12681;SDS011;6405;59.208;18.216;2022-12-18T01:35:05;15.27;;;7.97;;
12681;SDS011;6405;59.208;18.216;2022-12-18T01:37:33;12.83;;;7.63;;
12681;SDS011;6405;59.208;18.216;2022-12-18T01:39:59;13.40;;;7.57;;
12681;SDS011;6405;59.208;18.216;2022-12-18T01:42:25;12.87;;;7.93;;
12681;SDS011;6405;59.208;18.216;2022-12-18T01:44:53;13.00;;;7.40;;
12681;SDS011;6405;59.208;18.216;2022-12-18T01:55:25;17.67;;;8.73;;
12681;SDS011;6405;59.208;18.216;2022-12-18T01:57:57;13.97;;;7.63;;
12681;SDS011;6405;59.208;18.216;2022-12-18T02:00:26;12.70;;;7.63;;
12681;SDS011;6405;59.208;18.216;2022-12-18T02:02:54;13.03;;;7.97;;
12681;SDS011;6405;59.208;18.216;2022-12-18T02:05:34;13.70;;;7.77;;
12681;SDS011;6405;59.208;18.216;2022-12-18T02:14:10;15.90;;;8.13;;
12681;SDS011;6405;59.208;18.216;2022-12-18T02:17:19;13.90;;;7.30;;
12681;SDS011;6405;59.208;18.216;2022-12-18T02:25:40;17.27;;;8.20;;
12681;SDS011;6405;59.208;18.216;2022-12-18T02:28:30;14.60;;;7.70;;
12681;SDS011;6405;59.208;18.216;2022-12-18T02:31:01;14.63;;;8.60;;
12681;SDS011;6405;59.208;18.216;2022-12-18T02:33:30;12.70;;;7.00;;
12681;SDS011;6405;59.208;18.216;2022-12-18T02:35:58;13.70;;;7.60;;
12681;SDS011;6405;59.208;18.216;2022-12-18T02:38:28;10.50;;;6.97;;
12681;SDS011;6405;59.208;18.216;2022-12-18T02:40:57;15.80;;;7.27;;
12681;SDS011;6405;59.208;18.216;2022-12-18T02:43:24;10.77;;;6.20;;
12681;SDS011;6405;59.208;18.216;2022-12-18T02:45:55;15.30;;;9.00;;
12681;SDS011;6405;59.208;18.216;2022-12-18T02:48:26;17.57;;;8.07;;
12681;SDS011;6405;59.208;18.216;2022-12-18T02:53:38;11.67;;;6.33;;
12681;SDS011;6405;59.208;18.216;2022-12-18T03:01:24;13.50;;;8.10;;
12681;SDS011;6405;59.208;18.216;2022-12-18T03:04:04;13.47;;;7.17;;
12681;SDS011;6405;59.208;18.216;2022-12-18T03:06:37;18.50;;;8.33;;
12681;SDS011;6405;59.208;18.216;2022-12-18T03:09:12;11.40;;;6.50;;
12681;SDS011;6405;59.208;18.216;2022-12-18T03:11:54;13.43;;;7.27;;
12681;SDS011;6405;59.208;18.216;2022-12-18T03:14:43;13.87;;;8.03;;
12681;SDS011;6405;59.208;18.216;2022-12-18T03:17:15;12.30;;;7.57;;
12681;SDS011;6405;59.208;18.216;2022-12-18T03:19:45;10.87;;;6.37;;
12681;SDS011;6405;59.208;18.216;2022-12-18T03:22:15;12.13;;;7.60;;
12681;SDS011;6405;59.208;18.216;2022-12-18T03:24:44;14.30;;;7.37;;
12681;SDS011;6405;59.208;18.216;2022-12-18T03:27:13;14.40;;;7.80;;
12681;SDS011;6405;59.208;18.216;2022-12-18T03:29:53;13.23;;;7.67;;
12681;SDS011;6405;59.208;18.216;2022-12-18T03:32:35;15.50;;;7.53;;
12681;SDS011;6405;59.208;18.216;2022-12-18T03:35:19;9.43;;;5.30;;
12681;SDS011;6405;59.208;18.216;2022-12-18T03:37:50;10.80;;;7.10;;
12681;SDS011;6405;59.208;18.216;2022-12-18T03:40:18;12.37;;;7.13;;
12681;SDS011;6405;59.208;18.216;2022-12-18T03:42:48;11.13;;;6.83;;
12681;SDS011;6405;59.208;18.216;2022-12-18T03:45:19;11.70;;;7.37;;
12681;SDS011;6405;59.208;18.216;2022-12-18T03:47:58;11.83;;;7.00;;
12681;SDS011;6405;59.208;18.216;2022-12-18T03:55:58;10.70;;;6.67;;
12681;SDS011;6405;59.208;18.216;2022-12-18T03:58:26;11.63;;;6.33;;
12681;SDS011;6405;59.208;18.216;2022-12-18T04:00:55;11.10;;;6.63;;
12681;SDS011;6405;59.208;18.216;2022-12-18T04:03:29;14.87;;;7.00;;
12681;SDS011;6405;59.208;18.216;2022-12-18T04:05:58;15.13;;;6.93;;
12681;SDS011;6405;59.208;18.216;2022-12-18T04:08:26;12.50;;;6.40;;
12681;SDS011;6405;59.208;18.216;2022-12-18T04:10:55;10.33;;;6.20;;
12681;SDS011;6405;59.208;18.216;2022-12-18T04:13:28;12.00;;;7.03;;
12681;SDS011;6405;59.208;18.216;2022-12-18T04:15:58;9.30;;;5.73;;
12681;SDS011;6405;59.208;18.216;2022-12-18T04:18:26;11.13;;;5.77;;
12681;SDS011;6405;59.208;18.216;2022-12-18T04:20:53;9.67;;;6.07;;
12681;SDS011;6405;59.208;18.216;2022-12-18T04:23:19;12.87;;;6.40;;
12681;SDS011;6405;59.208;18.216;2022-12-18T04:25:47;10.50;;;6.27;;
12681;SDS011;6405;59.208;18.216;2022-12-18T04:28:13;11.27;;;6.17;;
12681;SDS011;6405;59.208;18.216;2022-12-18T04:30:40;9.30;;;5.47;;
12681;SDS011;6405;59.208;18.216;2022-12-18T04:33:09;10.90;;;6.77;;
12681;SDS011;6405;59.208;18.216;2022-12-18T04:35:41;11.50;;;6.47;;
12681;SDS011;6405;59.208;18.216;2022-12-18T04:38:10;12.57;;;6.70;;
12681;SDS011;6405;59.208;18.216;2022-12-18T04:40:37;13.17;;;6.63;;
12681;SDS011;6405;59.208;18.216;2022-12-18T04:43:03;9.83;;;6.27;;
12681;SDS011;6405;59.208;18.216;2022-12-18T04:45:31;11.87;;;6.43;;
12681;SDS011;6405;59.208;18.216;2022-12-18T04:47:59;9.07;;;5.30;;
12681;SDS011;6405;59.208;18.216;2022-12-18T04:50:27;10.53;;;6.67;;
12681;SDS011;6405;59.208;18.216;2022-12-18T04:52:56;13.17;;;7.17;;
12681;SDS011;6405;59.208;18.216;2022-12-18T04:55:25;12.37;;;7.30;;
12681;SDS011;6405;59.208;18.216;2022-12-18T04:57:52;10.20;;;7.10;;
12681;SDS011;6405;59.208;18.216;2022-12-18T05:00:19;11.50;;;7.07;;
12681;SDS011;6405;59.208;18.216;2022-12-18T05:02:46;13.07;;;6.00;;
12681;SDS011;6405;59.208;18.216;2022-12-18T05:05:14;12.70;;;6.87;;
12681;SDS011;6405;59.208;18.216;2022-12-18T05:07:41;13.37;;;6.73;;
12681;SDS011;6405;59.208;18.216;2022-12-18T05:10:06;16.53;;;7.93;;
12681;SDS011;6405;59.208;18.216;2022-12-18T05:12:34;12.33;;;6.67;;
12681;SDS011;6405;59.208;18.216;2022-12-18T05:15:21;12.90;;;6.47;;
12681;SDS011;6405;59.208;18.216;2022-12-18T05:17:50;13.83;;;6.67;;
12681;SDS011;6405;59.208;18.216;2022-12-18T05:20:17;10.53;;;6.53;;
12681;SDS011;6405;59.208;18.216;2022-12-18T05:22:44;10.77;;;6.10;;
12681;SDS011;6405;59.208;18.216;2022-12-18T05:25:11;12.57;;;6.80;;
12681;SDS011;6405;59.208;18.216;2022-12-18T05:27:39;13.00;;;7.27;;
12681;SDS011;6405;59.208;18.216;2022-12-18T05:30:05;14.13;;;7.37;;
12681;SDS011;6405;59.208;18.216;2022-12-18T05:32:33;11.87;;;6.73;;
12681;SDS011;6405;59.208;18.216;2022-12-18T05:34:59;9.90;;;6.00;;
12681;SDS011;6405;59.208;18.216;2022-12-18T05:37:28;14.93;;;6.70;;
12681;SDS011;6405;59.208;18.216;2022-12-18T05:39:56;17.10;;;6.47;;
12681;SDS011;6405;59.208;18.216;2022-12-18T05:42:23;11.77;;;6.73;;
12681;SDS011;6405;59.208;18.216;2022-12-18T05:44:50;11.00;;;6.27;;
12681;SDS011;6405;59.208;18.216;2022-12-18T05:47:17;11.80;;;6.20;;
12681;SDS011;6405;59.208;18.216;2022-12-18T05:49:44;12.93;;;7.33;;
12681;SDS011;6405;59.208;18.216;2022-12-18T05:52:11;11.73;;;6.80;;
12681;SDS011;6405;59.208;18.216;2022-12-18T05:54:38;11.83;;;6.20;;
12681;SDS011;6405;59.208;18.216;2022-12-18T05:57:05;15.07;;;7.17;;
12681;SDS011;6405;59.208;18.216;2022-12-18T05:59:32;13.60;;;7.07;;
12681;SDS011;6405;59.208;18.216;2022-12-18T06:01:58;12.27;;;7.30;;
12681;SDS011;6405;59.208;18.216;2022-12-18T06:04:26;13.43;;;7.27;;
12681;SDS011;6405;59.208;18.216;2022-12-18T06:06:55;13.17;;;6.07;;
12681;SDS011;6405;59.208;18.216;2022-12-18T06:09:21;12.87;;;7.07;;
12681;SDS011;6405;59.208;18.216;2022-12-18T06:11:47;11.80;;;6.43;;
12681;SDS011;6405;59.208;18.216;2022-12-18T06:14:14;11.20;;;6.30;;
12681;SDS011;6405;59.208;18.216;2022-12-18T06:16:42;11.80;;;6.37;;
12681;SDS011;6405;59.208;18.216;2022-12-18T06:19:12;10.47;;;5.87;;
12681;SDS011;6405;59.208;18.216;2022-12-18T06:21:42;11.27;;;6.70;;
12681;SDS011;6405;59.208;18.216;2022-12-18T06:24:10;11.03;;;6.30;;
12681;SDS011;6405;59.208;18.216;2022-12-18T06:26:37;13.40;;;6.97;;
12681;SDS011;6405;59.208;18.216;2022-12-18T06:29:05;11.47;;;6.10;;
12681;SDS011;6405;59.208;18.216;2022-12-18T06:31:32;11.60;;;6.20;;
12681;SDS011;6405;59.208;18.216;2022-12-18T06:34:02;10.63;;;5.90;;
12681;SDS011;6405;59.208;18.216;2022-12-18T06:36:29;14.63;;;6.63;;
12681;SDS011;6405;59.208;18.216;2022-12-18T06:38:57;11.20;;;6.30;;
12681;SDS011;6405;59.208;18.216;2022-12-18T06:41:27;13.30;;;6.43;;
12681;SDS011;6405;59.208;18.216;2022-12-18T06:43:53;13.30;;;6.10;;
12681;SDS011;6405;59.208;18.216;2022-12-18T06:46:19;12.40;;;6.53;;
12681;SDS011;6405;59.208;18.216;2022-12-18T06:48:46;15.17;;;7.47;;
12681;SDS011;6405;59.208;18.216;2022-12-18T06:51:22;12.50;;;6.57;;
12681;SDS011;6405;59.208;18.216;2022-12-18T06:53:50;11.50;;;6.97;;
12681;SDS011;6405;59.208;18.216;2022-12-18T06:56:16;13.60;;;7.30;;
12681;SDS011;6405;59.208;18.216;2022-12-18T06:58:43;11.20;;;5.93;;
12681;SDS011;6405;59.208;18.216;2022-12-18T07:01:10;12.77;;;7.23;;
12681;SDS011;6405;59.208;18.216;2022-12-18T07:03:39;15.10;;;6.93;;
12681;SDS011;6405;59.208;18.216;2022-12-18T07:06:15;12.43;;;7.00;;
12681;SDS011;6405;59.208;18.216;2022-12-18T07:08:46;12.40;;;6.80;;
12681;SDS011;6405;59.208;18.216;2022-12-18T07:11:12;12.47;;;6.70;;
12681;SDS011;6405;59.208;18.216;2022-12-18T07:13:38;10.50;;;7.23;;
12681;SDS011;6405;59.208;18.216;2022-12-18T07:16:05;15.67;;;7.70;;
12681;SDS011;6405;59.208;18.216;2022-12-18T07:18:38;11.67;;;6.73;;
12681;SDS011;6405;59.208;18.216;2022-12-18T07:21:06;14.70;;;7.20;;
12681;SDS011;6405;59.208;18.216;2022-12-18T07:23:34;15.23;;;6.93;;
12681;SDS011;6405;59.208;18.216;2022-12-18T07:26:06;13.00;;;7.70;;
12681;SDS011;6405;59.208;18.216;2022-12-18T07:28:36;15.60;;;7.13;;
12681;SDS011;6405;59.208;18.216;2022-12-18T07:31:07;14.97;;;7.17;;
12681;SDS011;6405;59.208;18.216;2022-12-18T07:33:38;16.97;;;7.83;;
12681;SDS011;6405;59.208;18.216;2022-12-18T07:36:07;15.67;;;7.73;;
12681;SDS011;6405;59.208;18.216;2022-12-18T07:38:35;13.07;;;7.10;;
12681;SDS011;6405;59.208;18.216;2022-12-18T07:41:03;5.63;;;3.77;;
12681;SDS011;6405;59.208;18.216;2022-12-18T07:43:34;14.70;;;8.33;;
12681;SDS011;6405;59.208;18.216;2022-12-18T07:46:02;13.27;;;8.43;;
12681;SDS011;6405;59.208;18.216;2022-12-18T07:48:31;16.47;;;7.60;;
12681;SDS011;6405;59.208;18.216;2022-12-18T07:50:59;17.60;;;9.03;;
12681;SDS011;6405;59.208;18.216;2022-12-18T07:53:28;16.80;;;8.70;;
12681;SDS011;6405;59.208;18.216;2022-12-18T07:55:56;17.40;;;8.37;;
12681;SDS011;6405;59.208;18.216;2022-12-18T07:58:29;18.93;;;9.20;;
12681;SDS011;6405;59.208;18.216;2022-12-18T08:03:32;15.30;;;8.47;;
12681;SDS011;6405;59.208;18.216;2022-12-18T08:06:00;16.27;;;9.13;;
12681;SDS011;6405;59.208;18.216;2022-12-18T08:08:29;16.90;;;8.90;;
12681;SDS011;6405;59.208;18.216;2022-12-18T08:10:56;18.93;;;8.90;;
12681;SDS011;6405;59.208;18.216;2022-12-18T08:13:23;17.00;;;9.63;;
12681;SDS011;6405;59.208;18.216;2022-12-18T08:15:59;19.03;;;9.53;;
12681;SDS011;6405;59.208;18.216;2022-12-18T08:18:31;12.93;;;8.07;;
12681;SDS011;6405;59.208;18.216;2022-12-18T08:21:14;14.63;;;8.17;;
12681;SDS011;6405;59.208;18.216;2022-12-18T08:23:47;17.33;;;9.33;;
12681;SDS011;6405;59.208;18.216;2022-12-18T08:26:15;20.07;;;10.03;;
12681;SDS011;6405;59.208;18.216;2022-12-18T08:28:43;17.00;;;10.10;;
12681;SDS011;6405;59.208;18.216;2022-12-18T08:31:12;17.13;;;9.63;;
12681;SDS011;6405;59.208;18.216;2022-12-18T08:33:38;16.30;;;8.60;;
12681;SDS011;6405;59.208;18.216;2022-12-18T08:36:07;12.33;;;8.30;;
12681;SDS011;6405;59.208;18.216;2022-12-18T08:38:35;18.37;;;9.77;;
12681;SDS011;6405;59.208;18.216;2022-12-18T08:41:04;15.70;;;9.27;;
12681;SDS011;6405;59.208;18.216;2022-12-18T08:43:34;14.07;;;8.60;;
12681;SDS011;6405;59.208;18.216;2022-12-18T08:46:20;17.43;;;9.73;;
12681;SDS011;6405;59.208;18.216;2022-12-18T08:48:49;14.23;;;8.37;;
12681;SDS011;6405;59.208;18.216;2022-12-18T08:51:18;16.17;;;8.43;;
12681;SDS011;6405;59.208;18.216;2022-12-18T08:53:45;18.53;;;9.50;;
12681;SDS011;6405;59.208;18.216;2022-12-18T08:56:14;13.90;;;9.47;;
12681;SDS011;6405;59.208;18.216;2022-12-18T08:58:42;17.93;;;10.00;;
12681;SDS011;6405;59.208;18.216;2022-12-18T09:01:10;15.80;;;9.10;;
12681;SDS011;6405;59.208;18.216;2022-12-18T09:03:39;15.77;;;8.90;;
12681;SDS011;6405;59.208;18.216;2022-12-18T09:06:06;12.90;;;8.60;;
12681;SDS011;6405;59.208;18.216;2022-12-18T09:08:36;16.47;;;7.67;;
12681;SDS011;6405;59.208;18.216;2022-12-18T09:11:03;16.77;;;8.27;;
12681;SDS011;6405;59.208;18.216;2022-12-18T09:13:30;15.60;;;8.40;;
12681;SDS011;6405;59.208;18.216;2022-12-18T09:15:57;17.23;;;8.50;;
12681;SDS011;6405;59.208;18.216;2022-12-18T09:18:24;12.67;;;7.10;;
12681;SDS011;6405;59.208;18.216;2022-12-18T09:20:51;15.80;;;7.87;;
12681;SDS011;6405;59.208;18.216;2022-12-18T09:23:19;13.53;;;7.90;;
12681;SDS011;6405;59.208;18.216;2022-12-18T09:25:46;12.87;;;8.33;;
12681;SDS011;6405;59.208;18.216;2022-12-18T09:28:15;12.00;;;8.23;;
12681;SDS011;6405;59.208;18.216;2022-12-18T09:30:48;13.30;;;8.60;;
12681;SDS011;6405;59.208;18.216;2022-12-18T09:33:16;10.47;;;7.13;;
12681;SDS011;6405;59.208;18.216;2022-12-18T09:35:44;12.00;;;7.17;;
12681;SDS011;6405;59.208;18.216;2022-12-18T09:38:18;15.13;;;7.03;;
12681;SDS011;6405;59.208;18.216;2022-12-18T09:40:48;14.77;;;7.57;;
12681;SDS011;6405;59.208;18.216;2022-12-18T09:43:25;12.83;;;8.10;;
12681;SDS011;6405;59.208;18.216;2022-12-18T09:46:06;13.30;;;8.10;;
12681;SDS011;6405;59.208;18.216;2022-12-18T09:48:35;12.47;;;7.53;;
12681;SDS011;6405;59.208;18.216;2022-12-18T09:51:11;12.10;;;6.87;;
12681;SDS011;6405;59.208;18.216;2022-12-18T09:53:42;13.73;;;7.80;;
12681;SDS011;6405;59.208;18.216;2022-12-18T09:56:16;14.10;;;8.30;;
12681;SDS011;6405;59.208;18.216;2022-12-18T09:58:50;14.87;;;8.30;;
12681;SDS011;6405;59.208;18.216;2022-12-18T10:01:24;8.60;;;5.77;;
12681;SDS011;6405;59.208;18.216;2022-12-18T10:03:54;14.67;;;8.33;;
12681;SDS011;6405;59.208;18.216;2022-12-18T10:09:07;14.10;;;7.67;;
12681;SDS011;6405;59.208;18.216;2022-12-18T10:14:39;11.40;;;7.77;;
12681;SDS011;6405;59.208;18.216;2022-12-18T10:23:14;13.27;;;8.33;;
12681;SDS011;6405;59.208;18.216;2022-12-18T10:26:04;9.40;;;5.70;;
12681;SDS011;6405;59.208;18.216;2022-12-18T10:28:34;10.50;;;6.73;;
12681;SDS011;6405;59.208;18.216;2022-12-18T10:31:05;12.97;;;6.83;;
12681;SDS011;6405;59.208;18.216;2022-12-18T10:33:33;12.67;;;7.57;;
12681;SDS011;6405;59.208;18.216;2022-12-18T10:36:00;14.80;;;6.87;;
12681;SDS011;6405;59.208;18.216;2022-12-18T10:38:29;12.80;;;7.40;;
12681;SDS011;6405;59.208;18.216;2022-12-18T10:41:02;11.23;;;7.37;;
12681;SDS011;6405;59.208;18.216;2022-12-18T10:43:29;13.17;;;7.80;;
12681;SDS011;6405;59.208;18.216;2022-12-18T10:46:11;12.70;;;8.03;;
12681;SDS011;6405;59.208;18.216;2022-12-18T10:51:30;12.13;;;7.97;;
12681;SDS011;6405;59.208;18.216;2022-12-18T10:54:21;9.30;;;6.50;;
12681;SDS011;6405;59.208;18.216;2022-12-18T10:56:50;12.93;;;7.10;;
12681;SDS011;6405;59.208;18.216;2022-12-18T10:59:18;16.07;;;7.43;;
12681;SDS011;6405;59.208;18.216;2022-12-18T11:04:19;12.60;;;7.27;;
12681;SDS011;6405;59.208;18.216;2022-12-18T11:06:54;17.53;;;8.33;;
12681;SDS011;6405;59.208;18.216;2022-12-18T11:09:23;14.50;;;7.63;;
12681;SDS011;6405;59.208;18.216;2022-12-18T11:11:55;13.90;;;7.03;;
12681;SDS011;6405;59.208;18.216;2022-12-18T11:14:30;12.53;;;7.80;;
12681;SDS011;6405;59.208;18.216;2022-12-18T11:17:21;11.00;;;6.13;;
12681;SDS011;6405;59.208;18.216;2022-12-18T11:19:56;13.80;;;7.97;;
12681;SDS011;6405;59.208;18.216;2022-12-18T11:24:52;10.73;;;6.93;;
12681;SDS011;6405;59.208;18.216;2022-12-18T11:27:25;12.33;;;7.93;;
12681;SDS011;6405;59.208;18.216;2022-12-18T11:30:06;7.60;;;5.83;;
12681;SDS011;6405;59.208;18.216;2022-12-18T11:35:50;12.33;;;7.00;;
12681;SDS011;6405;59.208;18.216;2022-12-18T11:38:30;13.90;;;7.53;;
12681;SDS011;6405;59.208;18.216;2022-12-18T11:44:13;12.07;;;7.43;;
12681;SDS011;6405;59.208;18.216;2022-12-18T11:46:51;12.77;;;7.80;;
12681;SDS011;6405;59.208;18.216;2022-12-18T11:49:33;14.37;;;6.97;;
12681;SDS011;6405;59.208;18.216;2022-12-18T11:52:08;9.97;;;7.67;;
12681;SDS011;6405;59.208;18.216;2022-12-18T11:54:42;10.97;;;7.27;;
12681;SDS011;6405;59.208;18.216;2022-12-18T11:57:14;11.90;;;7.87;;
12681;SDS011;6405;59.208;18.216;2022-12-18T12:00:02;11.20;;;7.13;;
12681;SDS011;6405;59.208;18.216;2022-12-18T12:02:42;11.27;;;7.60;;
12681;SDS011;6405;59.208;18.216;2022-12-18T12:05:40;11.83;;;7.27;;
12681;SDS011;6405;59.208;18.216;2022-12-18T12:16:47;11.03;;;7.37;;
12681;SDS011;6405;59.208;18.216;2022-12-18T12:27:47;11.57;;;7.13;;
12681;SDS011;6405;59.208;18.216;2022-12-18T12:30:47;13.07;;;7.27;;
12681;SDS011;6405;59.208;18.216;2022-12-18T12:33:33;13.33;;;7.10;;
12681;SDS011;6405;59.208;18.216;2022-12-18T12:38:57;11.63;;;6.77;;
12681;SDS011;6405;59.208;18.216;2022-12-18T12:41:30;12.93;;;7.17;;
12681;SDS011;6405;59.208;18.216;2022-12-18T12:44:20;10.97;;;6.27;;
12681;SDS011;6405;59.208;18.216;2022-12-18T12:46:52;21.23;;;7.37;;
12681;SDS011;6405;59.208;18.216;2022-12-18T12:49:26;12.50;;;7.10;;
12681;SDS011;6405;59.208;18.216;2022-12-18T12:52:05;11.73;;;6.73;;
12681;SDS011;6405;59.208;18.216;2022-12-18T12:54:36;11.47;;;7.30;;
12681;SDS011;6405;59.208;18.216;2022-12-18T13:08:28;12.77;;;7.20;;
12681;SDS011;6405;59.208;18.216;2022-12-18T13:10:57;11.27;;;6.63;;
12681;SDS011;6405;59.208;18.216;2022-12-18T13:13:48;10.83;;;6.37;;
12681;SDS011;6405;59.208;18.216;2022-12-18T13:16:20;13.60;;;6.33;;
12681;SDS011;6405;59.208;18.216;2022-12-18T13:18:51;12.20;;;6.60;;
12681;SDS011;6405;59.208;18.216;2022-12-18T13:21:28;9.70;;;6.13;;
12681;SDS011;6405;59.208;18.216;2022-12-18T13:24:08;12.37;;;6.47;;
12681;SDS011;6405;59.208;18.216;2022-12-18T13:26:45;11.37;;;6.77;;
12681;SDS011;6405;59.208;18.216;2022-12-18T13:29:12;11.00;;;5.97;;
12681;SDS011;6405;59.208;18.216;2022-12-18T13:32:19;10.87;;;5.23;;
12681;SDS011;6405;59.208;18.216;2022-12-18T13:37:44;9.87;;;5.73;;
12681;SDS011;6405;59.208;18.216;2022-12-18T13:40:49;9.97;;;5.63;;
12681;SDS011;6405;59.208;18.216;2022-12-18T13:45:46;12.90;;;6.33;;
12681;SDS011;6405;59.208;18.216;2022-12-18T13:48:17;10.27;;;5.70;;
12681;SDS011;6405;59.208;18.216;2022-12-18T13:50:57;10.47;;;6.00;;
12681;SDS011;6405;59.208;18.216;2022-12-18T13:53:44;10.80;;;5.80;;
12681;SDS011;6405;59.208;18.216;2022-12-18T13:56:17;8.60;;;5.10;;
12681;SDS011;6405;59.208;18.216;2022-12-18T14:01:50;8.07;;;4.70;;
12681;SDS011;6405;59.208;18.216;2022-12-18T14:06:54;9.60;;;5.63;;
12681;SDS011;6405;59.208;18.216;2022-12-18T14:09:30;12.27;;;4.90;;
12681;SDS011;6405;59.208;18.216;2022-12-18T14:12:01;9.73;;;4.83;;
12681;SDS011;6405;59.208;18.216;2022-12-18T14:14:48;8.73;;;5.43;;
12681;SDS011;6405;59.208;18.216;2022-12-18T14:17:17;9.43;;;5.07;;
12681;SDS011;6405;59.208;18.216;2022-12-18T14:19:47;10.00;;;4.57;;
12681;SDS011;6405;59.208;18.216;2022-12-18T14:22:18;9.57;;;5.17;;
12681;SDS011;6405;59.208;18.216;2022-12-18T14:25:05;7.50;;;4.57;;
12681;SDS011;6405;59.208;18.216;2022-12-18T14:27:44;10.03;;;4.90;;
12681;SDS011;6405;59.208;18.216;2022-12-18T14:30:31;9.87;;;5.20;;
12681;SDS011;6405;59.208;18.216;2022-12-18T14:33:05;10.63;;;6.33;;
12681;SDS011;6405;59.208;18.216;2022-12-18T14:35:37;12.40;;;5.70;;
12681;SDS011;6405;59.208;18.216;2022-12-18T14:38:24;10.50;;;5.17;;
12681;SDS011;6405;59.208;18.216;2022-12-18T14:40:59;13.37;;;5.10;;
12681;SDS011;6405;59.208;18.216;2022-12-18T14:43:31;11.60;;;6.47;;
12681;SDS011;6405;59.208;18.216;2022-12-18T14:46:00;9.73;;;4.87;;
12681;SDS011;6405;59.208;18.216;2022-12-18T14:48:39;9.60;;;5.23;;
12681;SDS011;6405;59.208;18.216;2022-12-18T14:51:27;8.33;;;4.50;;
12681;SDS011;6405;59.208;18.216;2022-12-18T14:53:55;10.03;;;5.07;;
12681;SDS011;6405;59.208;18.216;2022-12-18T14:56:24;7.40;;;4.47;;
12681;SDS011;6405;59.208;18.216;2022-12-18T14:59:03;8.73;;;4.00;;
12681;SDS011;6405;59.208;18.216;2022-12-18T15:01:39;9.30;;;4.73;;
12681;SDS011;6405;59.208;18.216;2022-12-18T15:09:39;8.47;;;4.07;;
12681;SDS011;6405;59.208;18.216;2022-12-18T15:18:11;8.43;;;4.50;;
12681;SDS011;6405;59.208;18.216;2022-12-18T15:20:46;7.80;;;3.57;;
12681;SDS011;6405;59.208;18.216;2022-12-18T15:23:37;9.50;;;4.20;;
12681;SDS011;6405;59.208;18.216;2022-12-18T15:26:18;7.40;;;4.30;;
12681;SDS011;6405;59.208;18.216;2022-12-18T15:28:50;6.23;;;3.30;;
12681;SDS011;6405;59.208;18.216;2022-12-18T15:31:31;8.30;;;4.03;;
12681;SDS011;6405;59.208;18.216;2022-12-18T15:34:09;10.13;;;4.10;;
12681;SDS011;6405;59.208;18.216;2022-12-18T15:39:14;7.87;;;3.53;;
12681;SDS011;6405;59.208;18.216;2022-12-18T15:41:42;10.60;;;3.13;;
12681;SDS011;6405;59.208;18.216;2022-12-18T15:44:29;6.27;;;3.73;;
12681;SDS011;6405;59.208;18.216;2022-12-18T15:46:56;7.40;;;3.80;;
12681;SDS011;6405;59.208;18.216;2022-12-18T15:49:23;6.93;;;3.13;;
12681;SDS011;6405;59.208;18.216;2022-12-18T15:51:58;6.97;;;3.93;;
12681;SDS011;6405;59.208;18.216;2022-12-18T15:54:26;7.60;;;2.83;;
12681;SDS011;6405;59.208;18.216;2022-12-18T15:57:25;6.77;;;3.23;;
12681;SDS011;6405;59.208;18.216;2022-12-18T15:59:55;8.77;;;3.53;;
12681;SDS011;6405;59.208;18.216;2022-12-18T16:02:24;6.07;;;3.33;;
12681;SDS011;6405;59.208;18.216;2022-12-18T16:04:52;7.40;;;3.03;;
12681;SDS011;6405;59.208;18.216;2022-12-18T16:07:21;6.73;;;3.43;;
12681;SDS011;6405;59.208;18.216;2022-12-18T16:09:47;10.30;;;3.53;;
12681;SDS011;6405;59.208;18.216;2022-12-18T16:12:17;5.73;;;2.80;;
12681;SDS011;6405;59.208;18.216;2022-12-18T16:14:49;8.03;;;3.60;;
12681;SDS011;6405;59.208;18.216;2022-12-18T16:17:16;8.53;;;3.00;;
12681;SDS011;6405;59.208;18.216;2022-12-18T16:19:45;8.23;;;3.83;;
12681;SDS011;6405;59.208;18.216;2022-12-18T16:22:20;10.67;;;3.03;;
12681;SDS011;6405;59.208;18.216;2022-12-18T16:24:55;8.50;;;3.33;;
12681;SDS011;6405;59.208;18.216;2022-12-18T16:27:23;8.30;;;2.93;;
12681;SDS011;6405;59.208;18.216;2022-12-18T16:29:49;8.83;;;3.00;;
12681;SDS011;6405;59.208;18.216;2022-12-18T16:32:17;12.23;;;3.70;;
12681;SDS011;6405;59.208;18.216;2022-12-18T16:34:46;6.60;;;3.00;;
12681;SDS011;6405;59.208;18.216;2022-12-18T16:37:15;6.27;;;3.20;;
12681;SDS011;6405;59.208;18.216;2022-12-18T16:39:43;5.63;;;2.20;;
12681;SDS011;6405;59.208;18.216;2022-12-18T16:42:15;8.87;;;3.50;;
12681;SDS011;6405;59.208;18.216;2022-12-18T16:44:46;6.67;;;2.53;;
12681;SDS011;6405;59.208;18.216;2022-12-18T16:47:15;6.03;;;3.17;;
12681;SDS011;6405;59.208;18.216;2022-12-18T16:49:42;6.87;;;3.43;;
12681;SDS011;6405;59.208;18.216;2022-12-18T16:52:16;10.53;;;3.77;;
12681;SDS011;6405;59.208;18.216;2022-12-18T16:54:45;7.23;;;2.97;;
12681;SDS011;6405;59.208;18.216;2022-12-18T16:57:13;5.97;;;2.83;;
12681;SDS011;6405;59.208;18.216;2022-12-18T16:59:41;6.77;;;3.10;;